Airfield :
LOGIN :

Register | Disclaimer

   EN    FR    IT 

 










Legend :    VFR   Marginal VFR   IFR   Intensive IFR   Very Intensive IFR
Visi :
Ceiling :
>= 8 km
>= 3000ft
5 to 8 km
1000 to 3000 ft
1500m to 5 km
500 to 1000 ft
800 to 1500m
200 to 500 ft
< 800m
< 200 ft
Symbols :   Thunderstorms  Fog  Heavy snow  Heavy precipitations  Wind > 20 kt
SIGMETs :     Misc.  Thunderstorms  Icing  Turbulence  Mountain Waves  Volcanic Ashes







- Airport Elevation : 485 ft
- IATA code : QSA


LELL - Sabadell

CURRENT METAR :
  • 201030Z 13004KT 070V240 9999 FEW030 22/11 Q1024

EXPIRED METARs :
  • 201000Z 11005KT 050V190 CAVOK 21/11 Q1024
  • 200930Z 09001KT CAVOK 22/12 Q1024
  • 200900Z 13002KT CAVOK 20/11 Q1024
  • 200830Z VRB02KT CAVOK 18/11 Q1024
  • 200800Z 11001KT CAVOK 17/11 Q1024

TAF TAF LELL
Valid from the 20 at 09:00 until the 21 at 09:00 UTC


200800Z 2009/2109 VRB03KT 9999 FEW040 TX23/2013Z TN11/2106Z
BECMG 2009/2011 12010KT
BECMG 2018/2020 VRB03KT
No reported NOTAMs for that airfield.



MET'MAP, your aeronautical weather chart ! - Copyright ORBIFLY December 2007 - Disclaimer

ORBIFLY MET'MAP TEAM :

Programming & Development : Alexandra Zaïnal
Concept & Development : Baudouin d'Aumeries
Co-Development & Prog : Marc-Olivier Méhu
Technical & hardware support : Manuel Goepfert

Contact : metmap@orbifly.com




SOURCES & CREDITS :

   NOAA